CheckWX is a tool to help pilots better visualize weather data.  It is not intended as a substitute for an official pre-flight weather briefing.

08:50:14 UTC

KISO METAR
Kinston Regional Jetport at Stallings Field Airport
Kinston, North Carolina, USA
Current

10 mins ago

KISO 220840Z AUTO 01007KT 5SM -DZ SCT005 SCT010 OVC041 13/13 A3020 RMK AO2 T01300130
Observed
Feb-22 @ 08:40 UTC
Wind
  • 010° at 7 KTS
Visibility
5 SM
Flight Rules
MVFR
Conditions
Light Drizzle
Cloud Levels
  • Scattered at 500' AGL
  • Scattered at 1,000' AGL
  • Overcast at 4,100' AGL
Temperature
13°C / 55°F
Dewpoint
13°C / 55°F
Humidity
100%
Altimeter
30.2" Hg
Pressure
1022.72 hPa
Previous

30 mins ago

KISO 220820Z AUTO 36006KT 4SM RA SCT003 OVC039 13/13 A3020 RMK AO2 T01300130
Observed
Feb-22 @ 08:20 UTC
Wind
  • 360° at 6 KTS
Visibility
4 SM
Flight Rules
MVFR
Conditions
Rain
Cloud Levels
  • Scattered at 300' AGL
  • Overcast at 3,900' AGL
Temperature
13°C / 55°F
Dewpoint
13°C / 55°F
Humidity
100%
Altimeter
30.2" Hg
Pressure
1022.72 hPa
Previous

50 mins ago

KISO 220800Z AUTO 02006KT 3SM -RA OVC039 13/13 A3018 RMK AO2 T01300128
Observed
Feb-22 @ 08:00 UTC
Wind
  • 020° at 6 KTS
Visibility
3 SM
Flight Rules
MVFR
Conditions
Light Rain
Cloud Levels
  • Overcast at 3,900' AGL
Temperature
13°C / 55°F
Dewpoint
13°C / 55°F
Humidity
100%
Altimeter
30.18" Hg
Pressure
1022.02 hPa